Airfield :
LOGIN :

Register | Disclaimer

   EN    FR    IT 

 










Legend :    VFR   Marginal VFR   IFR   Intensive IFR   Very Intensive IFR
Visi :
Ceiling :
>= 8 km
>= 3000ft
5 to 8 km
1000 to 3000 ft
1500m to 5 km
500 to 1000 ft
800 to 1500m
200 to 500 ft
< 800m
< 200 ft
Symbols :   Thunderstorms  Fog  Heavy snow  Heavy precipitations  Wind > 20 kt
SIGMETs :     Misc.  Thunderstorms  Icing  Turbulence  Mountain Waves  Volcanic Ashes






- Airport Elevation : 299 ft
- IATA code : EDM


LFRI - La Roche Sur Yon - Les Ajoncs

CURRENT METAR :
  • 100230Z AUTO 04008KT CAVOK 21/17 Q1011

EXPIRED METARs :
  • 100200Z AUTO 03006KT CAVOK 22/17 Q1011
  • 100130Z AUTO 02007KT 9999 FEW003 BKN130 22/17 Q1011
  • 100100Z AUTO 01007KT CAVOK 21/17 Q1012
  • 100030Z AUTO 01006KT CAVOK 21/17 Q1012
  • 100000Z AUTO 36005KT CAVOK 22/18 Q1012

TAF TAF LFRI
Valid from the 09 at 18:00 until the 10 at 18:00 UTC


091700Z 0918/1018 31010KT CAVOK
BECMG 0921/0923 01006KT
TEMPO 1006/1015 4500 -SHRA BKN100TCU
PROB40
TEMPO 1009/1012 VRB20G40KT 2000 TSRAGR BKN005 BKN050CB
BECMG 1013/1015 19010KT



MET'MAP, your aeronautical weather chart ! - Copyright ORBIFLY December 2007 - Disclaimer

ORBIFLY MET'MAP TEAM :

Programming & Development : Alexandra Zaïnal
Concept & original design : Baudouin d'Aumeries
Assistance for programming : Marc-Olivier Méhu
Technical & hardware support : Manuel Goepfert

Contact : metmap@orbifly.com




SOURCES & CREDITS :

   NOAA